Flight Track Log - Related Links

Times and Time Zones

All times are in EDT time to prevent confusion due to time zone crossing. See the QJE1949 flight status page for this flight to view local times or setup timezone preferences in your user account.

Time Position Orientation Groundspeed Altitude Reporting Facility
EDT Latitude Longitude Course Direction KTS MPH feet Rate Location/Type
Mon 09:25:21 PM -16.8980 145.7640 104° East 151 174 1,200  Level FlightAware ADS-B
Mon 09:25:26 PM -16.8985 145.7686 55° Northeast 163 188 1,600 2,000 Climbing Aus ATC (RADAR)
Mon 09:25:51 PM -16.8870 145.7860 62° Northeast 196 226 2,200 1,444 Climbing FlightAware ADS-B
Mon 09:26:20 PM -16.8600 145.8030 31° Northeast 231 266 2,900 1,778 Climbing FlightAware ADS-B
Mon 09:26:45 PM -16.8370 145.8180 32° Northeast 253 291 3,800 2,400 Climbing FlightAware ADS-B
Mon 09:26:55 PM -16.8260 145.8260 35° Northeast 256 295 4,300 2,850 Climbing FlightAware ADS-B
Mon 09:27:25 PM -16.7940 145.8450 30° Northeast 275 316 5,700 2,850 Climbing FlightAware ADS-B
Mon 09:27:35 PM -16.7810 145.8470 North 276 318 6,200 3,000 Climbing FlightAware ADS-B
Mon 09:28:05 PM -16.7460 145.8290 334° Northwest 286 329 7,700 3,150 Climbing FlightAware ADS-B
Mon 09:28:15 PM -16.7400 145.8170 298° West 278 320 8,300 3,360 Climbing FlightAware ADS-B
Mon 09:28:30 PM -16.7360 145.7970 282° West 279 321 9,100 2,667 Climbing FlightAware ADS-B
Mon 09:29:00 PM -16.7480 145.7600 251° West 289 333 10,300 1,840 Climbing FlightAware ADS-B
Mon 09:29:45 PM -16.7810 145.7000 240° Southwest 328 377 11,400 1,500 Climbing FlightAware ADS-B
Mon 09:30:20 PM -16.8115 145.6508 240° Southwest 343 395 12,300 1,200 Climbing Aus ATC (RADAR)
Mon 09:30:25 PM -16.8160 145.6450 240° Southwest 356 410 12,200 1,333 Descending FlightAware ADS-B
Mon 09:31:05 PM -16.8550 145.5830 240° Southwest 381 438 13,300 1,756 Climbing FlightAware ADS-B
Mon 09:31:06 PM -16.8549 145.5834 240° Southwest 372 428 13,400 2,100 Climbing Aus ATC (RADAR)
Mon 09:31:45 PM -16.8940 145.5220 236° Southwest 384 442 14,700 1,875 Climbing FlightAware ADS-B
Mon 09:32:26 PM -16.9360 145.4570 236° Southwest 394 453 15,900 1,852 Climbing FlightAware ADS-B
Mon 09:33:06 PM -16.9760 145.3950 236° Southwest 396 456 17,200 1,760 Climbing FlightAware ADS-B
Mon 09:33:41 PM -17.0080 145.3450 236° Southwest 404 465 18,100 1,575 Climbing FlightAware ADS-B
Mon 09:34:26 PM -17.0580 145.2660 236° Southwest 414 476 19,300 1,548 Climbing FlightAware ADS-B
Mon 09:35:14 PM -17.1117 145.1815 236° Southwest 418 481 20,500 1,440 Climbing Aus ATC (RADAR)
Mon 09:35:16 PM -17.1130 145.1800 236° Southwest 424 488 20,500 1,787 Level FlightAware ADS-B
Mon 09:36:01 PM -17.1630 145.1020 236° Southwest 418 481 21,900 1,667 Climbing FlightAware ADS-B
Mon 09:36:46 PM -17.2120 145.0250 236° Southwest 419 482 23,000 1,326 Climbing FlightAware ADS-B
Mon 09:37:27 PM -17.2540 144.9580 237° Southwest 420 483 23,800 1,200 Climbing FlightAware ADS-B
Mon 09:38:06 PM -17.2970 144.8910 236° Southwest 421 484 24,600 973 Climbing FlightAware ADS-B
Mon 09:38:41 PM -17.3340 144.8330 236° Southwest 426 490 25,000 750 Climbing FlightAware ADS-B
Mon 09:39:26 PM -17.3850 144.7530 236° Southwest 435 501 25,600 835 Climbing FlightAware ADS-B
Mon 09:40:00 PM -17.4205 144.6946 236° Southwest 432 497 26,100 750 Climbing Aus ATC (RADAR)
Mon 09:40:06 PM -17.4290 144.6820 236° Southwest 438 504 26,100 585 Level FlightAware ADS-B
Mon 09:40:41 PM -17.4690 144.6200 236° Southwest 442 509 26,500 640 Climbing FlightAware ADS-B
Mon 09:41:21 PM -17.5120 144.5530 236° Southwest 447 514 26,900 988 Climbing FlightAware ADS-B
Mon 09:42:06 PM -17.5620 144.4720 237° Southwest 440 506 27,900 629 Climbing FlightAware ADS-B
Mon 09:43:06 PM -17.6230 144.3750 237° Southwest 441 507 28,000 62 Climbing FlightAware ADS-B
Mon 09:43:43 PM -17.6580 144.3180 237° Southwest 441 507 28,000  Level FlightAware ADS-B
Mon 09:44:19 PM -17.6920 144.2630 237° Southwest 441 507 28,000 2,264 Level FlightAware ADS-B
Mon 09:44:35 PM -17.5760 144.4510 57° Northeast 30,800 3,429 Climbing FlightAware ADS-B
Mon 09:45:29 PM -17.7867 144.1129 57° Northeast 420 483 32,000 1,108 Climbing Aus ATC (RADAR)
Mon 09:45:40 PM -17.7990 144.0960 57° Northeast 423 487 32,000  Level FlightAware ADS-B
Mon 09:46:25 PM -17.8470 144.0190 237° Southwest 414 476 32,000  Level FlightAware ADS-B
Mon 09:47:05 PM -17.8890 143.9510 237° Southwest 416 479 32,000  Level FlightAware ADS-B
Mon 09:48:00 PM -17.9390 143.8730 236° Southwest 418 481 32,000  Level FlightAware ADS-B
Mon 09:48:36 PM -17.9720 143.8210 236° Southwest 418 481 32,000  Level FlightAware ADS-B
Mon 09:49:15 PM -18.0300 143.7270 237° Southwest 430 495 32,000 62 Level FlightAware ADS-B
Mon 09:50:13 PM -18.0929 143.6243 237° Southwest 426 490 32,100  Climbing Aus ATC (RADAR)
Mon 09:50:45 PM -18.0760 143.6530 237° Southwest 430 495 32,000 -88 Descending FlightAware ADS-B
Mon 09:51:21 PM -18.1090 143.5990 237° Southwest 430 495 32,000 158 Level FlightAware ADS-B
Mon 09:51:23 PM -18.1639 143.5071 237° Southwest 406 467 32,100  Climbing Aus ATC (RADAR)
Mon 09:52:11 PM -18.1550 143.5240 237° Southwest 430 495 32,000 -63 Descending FlightAware ADS-B
Mon 09:52:59 PM -18.1990 143.4530 237° Southwest 430 495 32,000  Level FlightAware ADS-B
Mon 09:53:35 PM -18.2320 143.3990 237° Southwest 430 495 32,000 154 Level FlightAware ADS-B
Mon 09:53:38 PM -18.3034 143.2842 237° Southwest 406 467 32,100 125 Climbing Aus ATC (RADAR)
Mon 09:54:23 PM -18.3502 143.2093 237° Southwest 409 471 32,100 -74 Level Aus ATC (RADAR)
Mon 09:54:59 PM -18.3100 143.2730 237° Southwest 430 495 32,000  Descending FlightAware ADS-B
Mon 09:55:32 PM -18.4257 143.0932 237° Southwest 413 475 32,100  Climbing Aus ATC (RADAR)
Mon 09:55:35 PM -18.3430 143.2200 237° Southwest 430 495 32,000  Descending FlightAware ADS-B
Mon 09:56:07 PM -18.4624 143.0345 237° Southwest 412 474 32,100  Climbing Aus ATC (RADAR)
Mon 09:56:35 PM -18.3980 143.1300 237° Southwest 430 495 32,000 -92 Descending FlightAware ADS-B
Mon 09:57:12 PM -18.4320 143.0750 237° Southwest 430 495 32,000 78 Level FlightAware ADS-B
Mon 09:57:52 PM -18.5753 142.8568 237° Southwest 419 482 32,100  Climbing Aus ATC (RADAR)
Mon 09:58:00 PM -18.4760 143.0030 237° Southwest 430 495 32,000 -136 Descending FlightAware ADS-B
Mon 09:58:36 PM -18.5100 142.9490 236° Southwest 430 495 32,000 78 Level FlightAware ADS-B
Mon 09:59:17 PM -18.6678 142.7121 236° Southwest 422 486 32,100  Climbing Aus ATC (RADAR)
Mon 09:59:36 PM -18.5650 142.8590 236° Southwest 430 495 32,000  Descending FlightAware ADS-B
Mon 10:00:51 PM -18.7687 142.5522 236° Southwest 414 476 32,100 48 Climbing Aus ATC (RADAR)
Mon 10:01:42 PM -18.8223 142.4680 236° Southwest 414 476 32,100  Level Aus ATC (RADAR)
Mon 10:02:31 PM -18.8743 142.3841 237° Southwest 410 472 32,100  Level Aus ATC (RADAR)
Mon 10:03:06 PM -18.9111 142.3253 236° Southwest 412 474 32,100  Level Aus ATC (RADAR)
Mon 10:03:56 PM -18.9643 142.2425 236° Southwest 410 472 32,100 57 Level Aus ATC (RADAR)
Mon 10:04:51 PM -19.0225 142.1508 236° Southwest 410 472 32,200 44 Climbing Aus ATC (RADAR)
Mon 10:06:11 PM -19.1047 142.0163 237° Southwest 409 471 32,200 -61 Level Aus ATC (RADAR)
Mon 10:08:09 PM -19.2320 141.8200 237° Southwest 408 470 32,000 -76 Descending FlightAware ADS-B
Mon 10:08:49 PM -19.2730 141.7540 237° Southwest 409 471 32,000  Level FlightAware ADS-B
Mon 10:09:29 PM -19.3150 141.6870 236° Southwest 408 470 32,000  Level FlightAware ADS-B
Mon 10:10:13 PM -19.3610 141.6140 236° Southwest 408 470 32,000  Level FlightAware ADS-B
Mon 10:10:53 PM -19.4030 141.5470 236° Southwest 407 468 32,000  Level FlightAware ADS-B
Mon 10:11:10 PM -19.4527 141.4622 66° East 32,000  Level Aus ATC (Calculated)
Mon 10:11:35 PM -19.4460 141.4780 236° Southwest 408 470 32,000  Level FlightAware ADS-B
Mon 10:12:17 PM -19.4900 141.4070 237° Southwest 406 467 32,000  Level FlightAware ADS-B
Mon 10:13:01 PM -19.5350 141.3340 237° Southwest 405 466 32,000  Level FlightAware ADS-B
Mon 10:13:43 PM -19.5780 141.2640 237° Southwest 403 464 32,000  Level FlightAware ADS-B
Mon 10:14:40 PM -19.6320 141.1790 236° Southwest 402 463 32,000  Level FlightAware ADS-B
Mon 10:15:19 PM -19.6760 141.1070 237° Southwest 400 460 32,000  Level FlightAware ADS-B
Mon 10:15:55 PM -19.7120 141.0480 237° Southwest 399 459 32,000  Level FlightAware ADS-B
Mon 10:16:09 PM -19.7833 140.9310 58° Northeast 32,000  Level Aus ATC (Calculated)
Mon 10:16:39 PM -19.7570 140.9750 237° Southwest 401 461 32,000  Level FlightAware ADS-B
Mon 10:17:15 PM -19.7940 140.9160 237° Southwest 402 463 32,000  Level FlightAware ADS-B
Mon 10:17:55 PM -19.8350 140.8500 237° Southwest 401 461 32,000  Level FlightAware ADS-B
Mon 10:18:39 PM -19.8800 140.7780 236° Southwest 399 459 32,000  Level FlightAware ADS-B
Mon 10:19:17 PM -19.9170 140.7150 238° Southwest 401 461 32,000  Level FlightAware ADS-B
Mon 10:19:53 PM -19.9540 140.6560 236° Southwest 402 463 32,000  Level FlightAware ADS-B
Mon 10:20:37 PM -19.9990 140.5820 237° Southwest 401 461 32,000  Level FlightAware ADS-B
Mon 10:21:09 PM -20.1085 140.4035 57° Northeast 32,000  Level Aus ATC (Calculated)
Mon 10:21:17 PM -20.0390 140.5170 237° Southwest 399 459 32,000  Level FlightAware ADS-B
Mon 10:22:01 PM -20.0840 140.4450 236° Southwest 396 456 32,000  Level FlightAware ADS-B
Mon 10:22:33 PM -20.2131 140.2319 57° Northeast 32,000  Level Aus ATC (Calculated)
Mon 10:22:44 PM -20.1260 140.3750 237° Southwest 395 455 32,000  Level FlightAware ADS-B
Mon 10:23:23 PM -20.1660 140.3100 237° Southwest 395 455 32,000  Level FlightAware ADS-B
Mon 10:23:36 PM -20.2697 140.1389 57° Northeast 32,000  Level Aus ATC (Calculated)
Mon 10:24:03 PM -20.2050 140.2450 237° Southwest 393 452 32,000  Level FlightAware ADS-B
Mon 10:24:37 PM -20.2400 140.1890 236° Southwest 394 453 32,000  Level FlightAware ADS-B
Mon 10:25:25 PM -20.2870 140.1110 237° Southwest 394 453 32,000  Level FlightAware ADS-B
Mon 10:26:06 PM -20.3260 140.0470 237° Southwest 396 456 32,000  Level FlightAware ADS-B
Mon 10:26:42 PM -20.3630 139.9860 237° Southwest 395 455 32,000  Level FlightAware ADS-B
Mon 10:27:23 PM -20.4040 139.9180 237° Southwest 395 455 32,000  Level FlightAware ADS-B
Mon 10:27:28 PM -20.5168 139.7311 57° Northeast 32,000  Level Aus ATC (Calculated)
Mon 10:28:07 PM -20.4470 139.8470 237° Southwest 394 453 32,000  Level FlightAware ADS-B
Mon 10:28:47 PM -20.4870 139.7820 237° Southwest 393 452 32,000  Level FlightAware ADS-B
Mon 10:29:27 PM -20.5260 139.7170 237° Southwest 392 451 32,000  Level FlightAware ADS-B
Mon 10:30:09 PM -20.5680 139.6480 237° Southwest 391 450 32,000  Level FlightAware ADS-B
Mon 10:30:51 PM -20.6080 139.5810 237° Southwest 391 450 32,000  Level FlightAware ADS-B
Mon 10:31:00 PM -20.7228 139.3868 58° Northeast 32,000  Level Aus ATC (Calculated)
Mon 10:31:35 PM -20.6510 139.5090 237° Southwest 391 450 32,000  Level FlightAware ADS-B
Mon 10:31:52 PM -20.7809 139.2877 58° Northeast 32,000  Level Aus ATC (Calculated)
Mon 10:32:17 PM -20.6920 139.4410 237° Southwest 392 451 32,000  Level FlightAware ADS-B
Mon 10:32:57 PM -20.7300 139.3750 238° Southwest 391 450 32,000  Level FlightAware ADS-B
Mon 10:33:41 PM -20.7730 139.3030 237° Southwest 391 450 32,000  Level FlightAware ADS-B
Mon 10:34:21 PM -20.8110 139.2360 239° Southwest 390 449 32,000  Level FlightAware ADS-B
Mon 10:35:05 PM -20.8530 139.1650 238° Southwest 389 448 32,000  Level FlightAware ADS-B
Mon 10:35:37 PM -20.8840 139.1130 237° Southwest 389 448 32,000  Level FlightAware ADS-B
Mon 10:36:23 PM -20.9270 139.0380 238° Southwest 389 448 32,000  Level FlightAware ADS-B
Mon 10:36:47 PM -21.0706 138.7911 58° Northeast 32,000  Level Aus ATC (Calculated)
Mon 10:37:03 PM -20.9660 138.9720 238° Southwest 389 448 32,000  Level FlightAware ADS-B
Mon 10:37:39 PM -20.9990 138.9140 238° Southwest 387 445 32,000  Level FlightAware ADS-B
Mon 10:38:23 PM -21.0410 138.8420 238° Southwest 387 445 32,000  Level FlightAware ADS-B
Mon 10:39:03 PM -21.0800 138.7760 238° Southwest 389 448 32,000  Level FlightAware ADS-B
Mon 10:39:47 PM -21.1210 138.7050 238° Southwest 388 447 32,000  Level FlightAware ADS-B
Mon 10:40:27 PM -21.1600 138.6380 238° Southwest 389 448 32,000  Level FlightAware ADS-B
Mon 10:41:07 PM -21.1970 138.5730 239° Southwest 389 448 32,000  Level FlightAware ADS-B
Mon 10:41:46 PM -21.3588 138.2927 58° Northeast 32,000  Level Aus ATC (Calculated)
Mon 10:41:51 PM -21.2390 138.5010 239° Southwest 388 447 32,000  Level FlightAware ADS-B
Mon 10:42:27 PM -21.2730 138.4420 238° Southwest 389 448 32,000  Level FlightAware ADS-B
Mon 10:43:08 PM -21.3110 138.3760 238° Southwest 388 447 32,000  Level FlightAware ADS-B
Mon 10:43:48 PM -21.3490 138.3100 238° Southwest 388 447 32,000  Level FlightAware ADS-B
Mon 10:44:32 PM -21.3910 138.2370 238° Southwest 388 447 32,000  Level FlightAware ADS-B
Mon 10:45:01 PM -21.5310 137.9927 58° Northeast 32,000  Level Aus ATC (Calculated)
Mon 10:45:12 PM -21.4290 138.1710 238° Southwest 388 447 32,000  Level FlightAware ADS-B
Mon 10:45:56 PM -21.4690 138.1000 238° Southwest 387 445 32,000  Level FlightAware ADS-B
Mon 10:46:36 PM -21.5070 138.0350 238° Southwest 387 445 32,000  Level FlightAware ADS-B
Mon 10:46:46 PM -21.6329 137.8143 58° Northeast 32,000  Level Aus ATC (Calculated)
Mon 10:47:12 PM -21.5410 137.9750 238° Southwest 387 445 32,000  Level FlightAware ADS-B
Mon 10:47:54 PM -21.5810 137.9060 238° Southwest 387 445 32,000  Level FlightAware ADS-B
Mon 10:48:06 PM -21.7220 137.6577 59° Northeast 32,000  Level Aus ATC (Calculated)
Mon 10:48:38 PM -21.6210 137.8350 239° Southwest 386 444 32,000  Level FlightAware ADS-B
Mon 10:49:36 PM -21.6710 137.7480 239° Southwest 386 444 32,000  Level FlightAware ADS-B
Mon 10:50:24 PM -21.7100 137.6810 238° Southwest 386 444 32,000  Level FlightAware ADS-B
Mon 10:51:00 PM -21.7390 137.6310 238° Southwest 386 444 32,000  Level FlightAware ADS-B
Mon 10:51:48 PM -21.7770 137.5650 238° Southwest 386 444 32,000  Level FlightAware ADS-B
Mon 10:52:24 PM -21.8060 137.5150 238° Southwest 386 444 32,000  Level FlightAware ADS-B
Mon 10:53:00 PM -21.9884 137.1869 60° Northeast 32,000  Level Aus ATC (Calculated)
Mon 10:53:13 PM -21.8460 137.4470 238° Southwest 386 444 32,000  Level FlightAware ADS-B
Mon 10:53:50 PM -21.8760 137.3960 238° Southwest 386 444 32,000  Level FlightAware ADS-B
Mon 10:54:26 PM -21.9050 137.3460 238° Southwest 386 444 32,000  Level FlightAware ADS-B
Mon 10:54:40 PM -22.0768 137.0296 60° Northeast 32,000  Level Aus ATC (Calculated)
Mon 10:55:02 PM -21.9340 137.2960 238° Southwest 386 444 32,000  Level FlightAware ADS-B
Mon 10:55:50 PM -21.9720 137.2290 239° Southwest 386 444 32,000  Level FlightAware ADS-B
Mon 10:56:26 PM -22.0010 137.1790 238° Southwest 386 444 32,000  Level FlightAware ADS-B
Mon 10:57:02 PM -22.0300 137.1290 238° Southwest 386 444 32,000  Level FlightAware ADS-B
Mon 10:57:50 PM -22.0690 137.0620 238° Southwest 386 444 32,000  Level FlightAware ADS-B
Mon 10:58:00 PM -22.2534 136.7143 61° Northeast 32,000  Level Aus ATC (Calculated)
Mon 10:58:26 PM -22.0980 137.0120 238° Southwest 386 444 32,000  Level FlightAware ADS-B
Mon 10:59:09 PM -22.2974 136.6354 239° Southwest 32,000  Level Aus ATC (Calculated)
Mon 10:59:51 PM -22.3537 136.5342 238° Southwest 32,000  Level Aus ATC (Calculated)
Mon 11:00:54 PM -22.3819 136.4836 59° Northeast 32,000  Level Aus ATC (Calculated)
Mon 11:01:00 PM -22.2923 136.6446 59° Northeast  Level FlightAware Approximate
Mon 11:01:40 PM -22.4381 136.3823 59° Northeast 32,000  Level Aus ATC (Calculated)
Mon 11:02:02 PM -22.3620 136.5200 59° Northeast 383 441 32,000  Level FlightAware ADS-B
Mon 11:02:46 PM -22.4020 136.4470 239° Southwest 382 440 32,000  Level FlightAware ADS-B
Mon 11:03:26 PM -22.4390 136.3820 238° Southwest 383 441 32,000  Level FlightAware ADS-B
Mon 11:04:10 PM -22.4780 136.3100 240° Southwest 382 440 32,000  Level FlightAware ADS-B
Mon 11:04:48 PM -22.5130 136.2480 239° Southwest 381 438 32,000  Level FlightAware ADS-B
Mon 11:05:48 PM -22.6345 136.0272 59° Northeast 32,000  Level Aus ATC (Calculated)
Mon 11:05:51 PM -22.5690 136.1460 239° Southwest 381 438 32,000  Level FlightAware ADS-B
Mon 11:06:38 PM -22.6130 136.0670 239° Southwest 381 438 32,000  Level FlightAware ADS-B
Mon 11:07:14 PM -22.6440 136.0110 239° Southwest 380 437 32,000  Level FlightAware ADS-B
Mon 11:08:02 PM -22.6890 135.9290 239° Southwest 381 438 32,000  Level FlightAware ADS-B
Mon 11:08:55 PM -22.7320 135.8510 239° Southwest 381 438 32,000  Level FlightAware ADS-B
Mon 11:09:08 PM -22.8124 135.7031 59° Northeast 900  Descending Aus ATC (Calculated)
Mon 11:09:46 PM -22.7810 135.7600 239° Southwest 381 438 32,000 23,325 Climbing FlightAware ADS-B
Mon 11:10:28 PM -22.8200 135.6890 239° Southwest 381 438 32,000  Level FlightAware ADS-B
Mon 11:11:06 PM -22.8510 135.6320 239° Southwest 380 437 32,000  Level FlightAware ADS-B
Mon 11:11:57 PM -22.8940 135.5550 239° Southwest 380 437 32,000  Level FlightAware ADS-B
Mon 11:12:52 PM -22.9450 135.4600 240° Southwest 378 435 32,000  Level FlightAware ADS-B
Mon 11:13:36 PM -22.9860 135.3850 239° Southwest 378 435 32,000  Level FlightAware ADS-B
Mon 11:14:02 PM -23.0430 135.2796 60° Northeast 900  Descending Aus ATC (Calculated)
Mon 11:14:14 PM -23.0210 135.3210 239° Southwest 378 435 32,000 31,627 Climbing FlightAware ADS-B
Mon 11:15:01 PM -23.0610 135.2470 240° Southwest 378 435 32,000  Level FlightAware ADS-B
Mon 11:15:34 PM -23.1087 135.1584 60° Northeast 900  Descending Aus ATC (Calculated)
Mon 11:15:40 PM -23.0960 135.1820 240° Southwest 378 435 32,000 40,565 Climbing FlightAware ADS-B
Mon 11:16:20 PM -23.1280 135.1240 240° Southwest 377 434 32,000 -71 Level FlightAware ADS-B
Mon 11:17:02 PM -23.1743 135.0370 62° Northeast 900 -136 Descending Aus ATC (Calculated)
Mon 11:17:04 PM -23.1670 135.0520 239° Southwest 378 435 31,900 46,421 Climbing FlightAware ADS-B
Mon 11:17:40 PM -23.2040 134.9830 239° Southwest 376 433 30,300 -2,625 Descending FlightAware ADS-B
Mon 11:18:07 PM -23.2398 134.9156 230° Southwest 900 -2,591 Descending Aus ATC (Calculated)
Mon 11:18:24 PM -23.2410 134.9140 239° Southwest 372 428 28,400 26,737 Climbing FlightAware ADS-B
Mon 11:19:04 PM -23.2760 134.8470 240° Southwest 358 412 26,300 -2,883 Descending FlightAware ADS-B
Mon 11:19:34 PM -23.3052 134.7940 55° Northeast 900 -2,595 Descending Aus ATC (Calculated)
Mon 11:19:41 PM -23.3020 134.7990 240° Southwest 350 403 24,700 28,174 Climbing FlightAware ADS-B
Mon 11:20:20 PM -23.3360 134.7360 240° Southwest 350 403 22,500 -3,108 Descending FlightAware ADS-B
Mon 11:20:39 PM -23.3379 134.7331 240° Southwest 900 -2,864 Descending Aus ATC (Calculated)
Mon 11:21:02 PM -23.3705 134.6723 239° Southwest 900 46,800 Level Aus ATC (Calculated)
Mon 11:21:04 PM -23.3740 134.6660 240° Southwest 372 428 20,400 25,756 Climbing FlightAware ADS-B
Mon 11:21:43 PM -23.4040 134.6090 240° Southwest 374 430 18,500 -3,000 Descending FlightAware ADS-B
Mon 11:22:28 PM -23.4460 134.5320 239° Southwest 359 413 16,200 -2,929 Descending FlightAware ADS-B
Mon 11:22:51 PM -23.4683 134.4895 240° Southwest 900 -2,769 Descending Aus ATC (Calculated)
Mon 11:23:07 PM -23.4780 134.4710 239° Southwest 345 397 14,400 10,952 Climbing FlightAware ADS-B
Mon 11:23:54 PM -23.5160 134.4010 239° Southwest 338 389 12,400 -2,308 Descending FlightAware ADS-B
Mon 11:24:25 PM -23.5400 134.3560 240° Southwest 328 377 11,400 -1,360 Descending FlightAware ADS-B
Mon 11:24:39 PM -23.5334 134.3674 240° Southwest 900 -955 Descending Aus ATC (Calculated)
Mon 11:25:09 PM -23.5710 134.2960 241° Southwest 288 331 10,700 7,739 Climbing FlightAware ADS-B
Mon 11:25:46 PM -23.5984 134.2453 58° Northeast 900 -1,385 Descending Aus ATC (Calculated)
Mon 11:25:48 PM -23.5940 134.2530 241° Southwest 285 328 9,800 17,357 Climbing FlightAware ADS-B
Mon 11:26:14 PM -23.6120 134.2190 241° Southwest 281 323 9,000 -1,714 Descending FlightAware ADS-B
Mon 11:26:37 PM -23.6270 134.1920 239° Southwest 279 321 8,400 -1,731 Descending FlightAware ADS-B
Mon 11:27:06 PM -23.6480 134.1510 241° Southwest 276 318 7,500 -1,684 Descending FlightAware ADS-B
Mon 11:27:34 PM -23.6640 134.1220 239° Southwest 276 318 6,800 -1,535 Descending FlightAware ADS-B
Mon 11:27:49 PM -23.6760 134.1000 239° Southwest 276 318 6,400 -1,571 Descending FlightAware ADS-B
Mon 11:28:16 PM -23.6930 134.0670 241° Southwest 268 308 5,700 -1,224 Descending FlightAware ADS-B
Mon 11:28:29 PM -23.7280 134.0007 60° Northeast 900 -818 Descending Aus ATC (Calculated)
Mon 11:28:38 PM -23.7060 134.0420 241° Southwest 254 292 5,400 6,154 Climbing FlightAware ADS-B
Mon 11:28:46 PM -23.7280 134.0007 26° Northeast 900 -1,000 Descending Aus ATC (Calculated)
Mon 11:28:46 PM -23.7280 134.0007 26° Northeast 900 10,909 Level Aus ATC (Calculated)
Mon 11:28:46 PM -23.7280 134.0007 26° Northeast 900 10,909 Level Aus ATC (Calculated)
Mon 11:29:08 PM -23.7160 134.0070 253° West 240 276 4,900 4,440 Climbing FlightAware ADS-B
Mon 11:29:36 PM -23.7220 133.9760 253° West 220 253 4,600 -450 Descending FlightAware ADS-B
Mon 11:29:48 PM -23.7250 133.9620 257° West 205 236 4,600 -600 Level FlightAware ADS-B
Mon 11:30:16 PM -23.7300 133.9350 259° West 182 209 4,200 -750 Descending FlightAware ADS-B
Mon 11:30:36 PM -23.7330 133.9190 258° West 164 189 4,000 -833 Descending FlightAware ADS-B
Mon 11:30:52 PM -23.7350 133.9060 260° West 158 182 3,700 -682 Descending FlightAware ADS-B
Mon 11:31:20 PM -23.7380 133.8840 262° West 158 182 3,500 -643 Descending FlightAware ADS-B
Mon 11:31:48 PM -23.7420 133.8610 262° West 155 178 3,100 -818 Descending FlightAware ADS-B
Mon 11:32:04 PM -23.7480 133.8530 231° Southwest 144 166 2,900 -682 Descending FlightAware ADS-B
Mon 11:32:32 PM -23.7650 133.8440 206° Southwest 141 162 2,600 -667 Descending FlightAware ADS-B
Mon 11:32:40 PM -23.7700 133.8430 190° South 137 158 2,500 -643 Descending FlightAware ADS-B
Mon 11:33:00 PM -23.7790 133.8500 145° Southeast 129 148 2,300 -625 Descending FlightAware ADS-B
Mon 11:33:28 PM -23.7860 133.8660 116° Southeast 129 148 2,000 -632 Descending FlightAware ADS-B
Mon 11:33:38 PM -23.7900 133.8720 126° Southeast 132 152 1,900 -750 Descending FlightAware ADS-B
Mon 11:34:08 PM -23.7980 133.8880 126° Southeast 125 144 1,500 -800 Descending FlightAware ADS-B

Login

Don't have an account? Register now (free) for customized features, flight alerts, and more!